Portada
METAR-TAF:

METAR-TAF

Aeropuertos :

Caracas, Venezuela

Aeropuerto Internacional de Maiquetía Simón Bolívar

latitud: 10-36N, longitud: 066-59W, altitud: 43 m

Observación

El informe se hizo hace 41 minutos, a las 01:00 UTC
Viento 4 kt del norte-noreste
Temperatura 25°C
Humedad 89%
Presión 1010 hPa
Visibilidad 10 km o más
Escasas nubes a una altura de 1600 ft

METAR: SVMI 240100Z 02004KT 9999 FEW016 25/23 Q1010

Hora: 21:41 (01:41 UTC)

Pronóstico

El informe se hizo hace 3 horas y 41 minutos, a las 22:00 UTC
Pronóstico válido del 24 a las 00 UTC al 25 a las 00 UTC
Viento 9 kt del este
Visibilidad 10 km o más
Escasas nubes a una altura de 1600 ft
Evolucionando progresivamente
del 24 a las 00 UTC al 24 a las 04 UTC
Viento 10 kt del este
Nubes dispersas a una altura de 1600 ft

TAF: SVMI 232200Z 2400/2500 09009KT 9999 FEW016 TX32/19Z TN23/09Z BECMG 2400/2404 10010KT SCT016

Observaciones y pronósticos meteorológicos de más de 4000 aeropuertos (mensajes METAR y TAF).

Los puntos amarillos y rojos representan las estaciones disponibles.

Ponga el ratón en el punto deseado para ver el nombre de la estación.

Haga clic para ver las observaciones y los pronósticos meteorológicos.

Para cambiar el mapa : haga clic en los botones verdes con una cruz de color negro para hacer un zoom, en el botón verde con un guión para alejar o en las flechas verdes para mapas adyacentes.


METAR-TAF: